Edgewood, Ohio
Current Conditions -  °F | °C
As of 2:53 AM on Saturday 20 Dec 2014 (Local Time) from KHZY Reporting Station
Overcast Overcast  
Wind Chill: 24°   Ceiling: 2400
Heat Index: 29°   Visibility: 10mi
Dew Point: 21°   Wind: 5mph
Humidity: 72%   Direction: 230°SW
Pressure: 30.26"   Gusts: NA
Location:  41.8515°N, 80.79°W
Report Text: KHZY 200753Z AUTO 23004KT 10SM OVC024 M02/M06 A3026 RMK AO2 SLP258 T10171061
Loading
Personal Weather Stations






























Interactive Weather Map New forecast layout! Learn more

10-Day Weather Forecast

Advertisements
Track Severe Weather on mobile